Airfield :
LOGIN :

Register | Disclaimer

   EN    FR    IT 

 










Legend :    VFR   Marginal VFR   IFR   Intensive IFR   Very Intensive IFR
Visi :
Ceiling :
>= 8 km
>= 3000ft
5 to 8 km
1000 to 3000 ft
1500m to 5 km
500 to 1000 ft
800 to 1500m
200 to 500 ft
< 800m
< 200 ft
Symbols :   Thunderstorms  Fog  Heavy snow  Heavy precipitations  Wind > 20 kt
SIGMETs :     Misc.  Thunderstorms  Icing  Turbulence  Mountain Waves  Volcanic Ashes






- Airport Elevation : 233 ft
- IATA code : REU


LERS - Reus Tarragona

CURRENT METAR :
  • 150830Z VRB05KT 9999 FEW030 17/04 Q1015

EXPIRED METARs :
  • 150800Z 28010G20KT 200V330 9999 FEW045 16/05 Q1015
  • 150730Z 16009G21KT 090V210 9999 FEW045 15/06 Q1015
  • 150700Z 14005KT 090V200 9999 FEW045 15/06 Q1014
  • 150630Z VRB03KT 9999 FEW045 14/06 Q1014
  • 150600Z 27011KT 210V320 9999 SCT045 15/06 Q1014

TAF TAF LERS
Valid from the 15 at 09:00 until the 16 at 09:00 UTC


150800Z 1509/1609 27008KT 9999 FEW030 TX23/1513Z TN12/1606Z
PROB40
TEMPO 1509/1515 30020G30KT
BECMG 1516/1518 VRB03KT



MET'MAP, your aeronautical weather chart ! - Copyright ORBIFLY December 2007 - Disclaimer

ORBIFLY MET'MAP TEAM :

Programming & Development : Alexandra Zaïnal
Concept & Development : Baudouin d'Aumeries
Co-Development & Prog : Marc-Olivier Méhu
Technical & hardware support : Manuel Goepfert

Contact : metmap@orbifly.com




SOURCES & CREDITS :

   NOAA